Time;durP1;ratioP1;P1;durP2;ratioP2;P2;SDS_P1;SDS_P2;PMS_P1;PMS_P2;Temp;Humidity;BMP_temperature;BMP_pressure;BME280_temperature;BME280_humidity;BME280_pressure;Samples;Min_cycle;Max_cycle;Signal;HPM_P1;HPM_P2
2022/05/13 00:01:53;;;;;;;15.45;5.43;;;12.20;99.90;;;;;;5095591;28;20043;-53
2022/05/13 00:04:19;;;;;;;9.40;4.70;;;12.20;99.90;;;;;;5092125;28;20134;-48
2022/05/13 00:06:45;;;;;;;10.05;4.97;;;12.20;99.90;;;;;;5100794;28;20047;-54
2022/05/13 00:09:11;;;;;;;9.20;4.35;;;12.20;99.90;;;;;;5101010;28;20048;-50
2022/05/13 00:11:38;;;;;;;11.40;4.82;;;12.20;99.90;;;;;;5100735;28;20092;-54
2022/05/13 00:14:07;;;;;;;12.77;4.57;;;12.10;99.90;;;;;;5100067;28;20490;-50
2022/05/13 00:16:35;;;;;;;12.55;4.82;;;12.20;99.90;;;;;;5100242;28;20502;-54
2022/05/13 00:19:06;;;;;;;7.90;4.35;;;12.20;99.90;;;;;;5101366;28;20106;-51
2022/05/13 00:21:32;;;;;;;14.07;5.28;;;12.20;99.90;;;;;;5093951;28;20112;-52
2022/05/13 00:23:57;;;;;;;12.90;4.90;;;12.20;99.90;;;;;;5100547;28;20044;-49
2022/05/13 00:26:24;;;;;;;16.42;5.10;;;12.20;99.90;;;;;;5093508;28;20580;-51
2022/05/13 00:28:50;;;;;;;13.00;5.15;;;12.30;99.90;;;;;;5097911;28;20062;-52
2022/05/13 00:31:18;;;;;;;12.25;4.90;;;12.30;99.90;;;;;;5100561;28;20086;-51
2022/05/13 00:33:44;;;;;;;11.55;5.45;;;12.30;99.90;;;;;;5083959;28;20444;-53
2022/05/13 00:36:10;;;;;;;13.95;4.78;;;12.30;99.90;;;;;;5101020;28;20048;-51
2022/05/13 00:38:36;;;;;;;10.18;4.60;;;12.30;99.90;;;;;;5100522;28;20066;-55
2022/05/13 00:41:02;;;;;;;16.85;4.82;;;12.20;99.90;;;;;;5089143;28;20059;-51
2022/05/13 00:43:41;;;;;;;17.67;6.15;;;12.30;99.90;;;;;;5100858;28;20166;-49
2022/05/13 00:46:07;;;;;;;14.85;5.32;;;12.30;99.90;;;;;;5099828;28;20086;-49
2022/05/13 00:48:32;;;;;;;14.43;5.90;;;12.30;99.90;;;;;;5100835;28;20158;-51
2022/05/13 00:50:58;;;;;;;12.27;5.50;;;12.40;99.90;;;;;;5101333;28;20091;-53
2022/05/13 00:53:25;;;;;;;14.27;5.22;;;12.30;99.90;;;;;;5100597;28;20040;-51
2022/05/13 00:55:53;;;;;;;15.98;5.70;;;12.40;99.90;;;;;;5099017;28;20134;-51
2022/05/13 00:58:19;;;;;;;15.60;5.57;;;12.40;99.90;;;;;;5101566;28;20405;-46
2022/05/13 01:00:46;;;;;;;13.90;5.20;;;12.40;99.90;;;;;;5082127;28;20164;-50
2022/05/13 01:03:13;;;;;;;19.13;5.82;;;12.40;99.90;;;;;;5100333;28;20060;-53
2022/05/13 01:05:41;;;;;;;14.90;6.13;;;12.40;99.90;;;;;;5105297;28;20420;-51
2022/05/13 01:08:08;;;;;;;20.00;6.05;;;12.40;99.90;;;;;;5099231;28;20054;-51
2022/05/13 01:10:36;;;;;;;15.38;5.82;;;12.40;99.90;;;;;;5082656;28;20049;-47
2022/05/13 01:13:11;;;;;;;22.15;6.32;;;12.40;99.90;;;;;;5099824;28;20043;-51
2022/05/13 01:15:41;;;;;;;24.70;5.82;;;12.50;99.90;;;;;;5100707;28;20075;-52
2022/05/13 01:18:07;;;;;;;20.50;5.88;;;12.50;99.90;;;;;;5095002;28;20054;-53
2022/05/13 01:20:38;;;;;;;22.45;5.70;;;12.50;99.90;;;;;;5092849;28;20078;-54
2022/05/13 01:23:10;;;;;;;20.88;6.25;;;12.60;99.90;;;;;;5086909;28;20047;-49
2022/05/13 01:25:44;;;;;;;18.27;5.70;;;12.60;99.90;;;;;;5092203;28;20048;-53
2022/05/13 01:28:20;;;;;;;25.02;6.25;;;12.70;99.90;;;;;;5100871;28;20484;-55
2022/05/13 01:30:50;;;;;;;22.48;6.45;;;12.70;99.90;;;;;;5083713;28;20050;-51
2022/05/13 01:33:16;;;;;;;21.92;5.72;;;12.70;99.90;;;;;;5100449;28;20053;-51
2022/05/13 01:35:48;;;;;;;20.10;5.55;;;12.70;99.90;;;;;;5099838;28;20036;-52
2022/05/13 01:38:15;;;;;;;22.80;6.70;;;12.70;99.90;;;;;;5079328;28;20060;-50
2022/05/13 01:40:41;;;;;;;27.10;6.88;;;12.80;99.90;;;;;;5061028;28;20117;-56
2022/05/13 01:43:08;;;;;;;25.58;6.25;;;12.80;99.90;;;;;;5063921;28;20056;-51
2022/05/13 01:45:34;;;;;;;24.92;6.60;;;12.80;99.90;;;;;;5083839;28;20048;-45
2022/05/13 01:48:01;;;;;;;26.77;6.78;;;12.80;99.90;;;;;;5083399;28;20394;-50
2022/05/13 01:50:27;;;;;;;30.25;6.68;;;12.80;99.90;;;;;;5052758;28;20481;-50
2022/05/13 01:52:54;;;;;;;31.80;6.47;;;12.80;99.90;;;;;;5082675;28;20040;-56
2022/05/13 01:55:21;;;;;;;23.23;6.93;;;12.80;99.90;;;;;;5054265;28;20465;-53
2022/05/13 01:57:47;;;;;;;23.83;6.45;;;12.80;99.90;;;;;;5083246;28;20052;-53
2022/05/13 02:00:14;;;;;;;23.02;6.28;;;12.80;99.90;;;;;;5083192;28;20048;-53
2022/05/13 02:05:24;;;;;;;21.27;6.53;;;12.80;99.90;;;;;;5098606;28;20051;-51
2022/05/13 02:07:51;;;;;;;19.08;6.20;;;12.80;99.90;;;;;;5103343;28;20055;-51
2022/05/13 02:10:17;;;;;;;22.80;7.25;;;12.80;99.90;;;;;;5103379;28;20051;-51
2022/05/13 02:12:44;;;;;;;23.70;6.43;;;12.80;99.90;;;;;;5101851;28;20048;-55
2022/05/13 02:15:10;;;;;;;21.42;6.65;;;12.80;99.90;;;;;;5105190;28;20386;-49
2022/05/13 02:17:36;;;;;;;23.88;6.60;;;12.80;99.90;;;;;;5106384;28;20078;-51
2022/05/13 02:20:07;;;;;;;20.13;6.70;;;12.80;99.90;;;;;;5101734;28;20746;-51
2022/05/13 02:22:33;;;;;;;22.75;6.55;;;12.80;99.90;;;;;;5101272;28;20108;-54
2022/05/13 02:24:58;;;;;;;25.02;6.70;;;12.80;99.90;;;;;;5104325;28;20051;-52
2022/05/13 02:27:24;;;;;;;22.15;6.30;;;12.70;99.90;;;;;;5103150;28;20455;-54
2022/05/13 02:29:50;;;;;;;20.58;5.68;;;12.70;99.90;;;;;;5103602;28;20044;-55
2022/05/13 02:32:16;;;;;;;26.92;6.60;;;12.70;99.90;;;;;;5102656;28;20104;-50
2022/05/13 02:34:42;;;;;;;28.65;6.10;;;12.70;99.90;;;;;;5102056;28;20083;-51
2022/05/13 02:37:08;;;;;;;28.42;6.60;;;12.70;99.90;;;;;;5103274;28;20613;-55
2022/05/13 02:39:34;;;;;;;22.75;6.03;;;12.70;99.90;;;;;;5102671;28;20047;-53
2022/05/13 02:41:59;;;;;;;25.98;6.30;;;12.70;99.90;;;;;;5102772;28;20204;-57
2022/05/13 02:44:25;;;;;;;19.90;7.05;;;12.70;99.90;;;;;;5101179;28;20402;-50
2022/05/13 02:46:52;;;;;;;19.13;6.07;;;12.70;99.90;;;;;;5102078;28;20055;-54
2022/05/13 02:49:18;;;;;;;21.20;5.70;;;12.70;99.90;;;;;;5103399;28;20043;-56
2022/05/13 02:51:48;;;;;;;22.17;5.97;;;12.70;99.90;;;;;;5100417;28;20071;-55
2022/05/13 02:54:14;;;;;;;21.20;6.65;;;12.60;99.90;;;;;;5100576;28;20087;-54
2022/05/13 02:56:40;;;;;;;28.80;7.00;;;12.60;99.90;;;;;;5101061;28;20058;-57
2022/05/13 02:59:06;;;;;;;22.35;6.20;;;12.60;99.90;;;;;;5103643;28;20116;-51
2022/05/13 03:01:32;;;;;;;21.33;5.60;;;12.60;99.90;;;;;;5102004;28;20082;-53
2022/05/13 03:03:59;;;;;;;24.85;6.28;;;12.70;99.90;;;;;;5101098;28;20051;-54
2022/05/13 03:06:25;;;;;;;22.23;6.03;;;12.70;99.90;;;;;;5107512;27;20091;-52
2022/05/13 03:08:52;;;;;;;20.02;6.00;;;12.70;99.90;;;;;;5102844;28;20047;-54
2022/05/13 03:11:20;;;;;;;21.90;5.47;;;12.70;99.90;;;;;;5114894;27;20494;-55
2022/05/13 03:13:50;;;;;;;22.00;6.22;;;12.70;99.90;;;;;;5099467;28;20048;-54
2022/05/13 03:16:19;;;;;;;17.63;5.20;;;12.80;99.90;;;;;;5102036;28;20055;-55
2022/05/13 03:18:47;;;;;;;24.42;6.00;;;12.80;99.90;;;;;;5102613;28;20055;-52
2022/05/13 03:21:13;;;;;;;18.73;5.20;;;12.80;99.90;;;;;;5095434;28;20044;-51
2022/05/13 03:23:43;;;;;;;24.63;5.43;;;12.70;99.90;;;;;;5102001;27;20530;-56
2022/05/13 03:26:14;;;;;;;21.45;5.13;;;12.80;99.90;;;;;;5102223;28;20052;-55
2022/05/13 03:28:40;;;;;;;20.27;5.32;;;12.80;99.90;;;;;;5103059;28;20073;-50
2022/05/13 03:31:06;;;;;;;21.25;5.20;;;12.80;99.90;;;;;;5103785;28;20474;-51
2022/05/13 03:33:33;;;;;;;19.23;4.93;;;12.80;99.90;;;;;;5104961;28;20047;-53
2022/05/13 03:35:59;;;;;;;15.45;5.10;;;12.80;99.90;;;;;;5101191;28;20055;-53
2022/05/13 03:38:25;;;;;;;18.73;6.22;;;12.80;99.90;;;;;;5100483;28;20073;-57
2022/05/13 03:40:52;;;;;;;23.80;5.18;;;12.80;99.90;;;;;;5103567;28;20802;-54
2022/05/13 03:43:18;;;;;;;16.83;4.57;;;12.70;99.90;;;;;;5099987;27;20844;-55
2022/05/13 03:45:45;;;;;;;27.35;5.68;;;12.80;99.90;;;;;;5100947;28;20569;-52
2022/05/13 03:48:11;;;;;;;20.42;5.65;;;12.70;99.90;;;;;;5099476;28;20052;-53
2022/05/13 03:50:40;;;;;;;17.50;4.72;;;12.70;99.90;;;;;;5101589;28;20054;-54
2022/05/13 03:53:06;;;;;;;23.38;5.70;;;12.70;99.90;;;;;;5099772;28;21055;-51
2022/05/13 03:55:33;;;;;;;16.70;4.47;;;12.70;99.90;;;;;;5100462;28;20570;-50
2022/05/13 03:57:59;;;;;;;20.38;4.95;;;12.70;99.90;;;;;;5101406;28;20154;-52
2022/05/13 04:00:25;;;;;;;14.20;4.90;;;12.70;99.90;;;;;;5101382;28;20048;-53
2022/05/13 04:02:51;;;;;;;16.33;4.68;;;12.70;99.90;;;;;;5100755;28;20067;-54
2022/05/13 04:10:46;;;;;;;18.98;4.22;;;12.70;99.90;;;;;;5099241;28;20496;-46
2022/05/13 04:16:06;;;;;;;13.45;4.28;;;12.70;99.90;;;;;;5098777;28;20058;-53
2022/05/13 04:18:38;;;;;;;15.60;3.63;;;12.70;99.90;;;;;;5089177;28;20498;-52
2022/05/13 04:21:07;;;;;;;12.45;3.65;;;12.70;99.90;;;;;;5099966;28;20056;-53
2022/05/13 04:23:35;;;;;;;10.93;3.50;;;12.70;99.90;;;;;;5101639;28;20122;-56
2022/05/13 04:26:01;;;;;;;13.68;4.18;;;12.70;99.90;;;;;;5100832;28;20421;-49
2022/05/13 04:28:28;;;;;;;16.55;3.67;;;12.70;99.90;;;;;;5100805;28;20372;-53
2022/05/13 04:30:58;;;;;;;16.30;4.43;;;12.70;99.90;;;;;;5100919;28;20078;-54
2022/05/13 04:33:25;;;;;;;12.10;3.63;;;12.70;99.90;;;;;;5100442;28;20051;-55
2022/05/13 04:35:52;;;;;;;18.25;4.45;;;12.70;99.90;;;;;;5094805;28;20051;-55
2022/05/13 04:38:18;;;;;;;13.40;4.35;;;12.70;99.90;;;;;;5107181;28;20079;-52
2022/05/13 04:40:44;;;;;;;12.80;3.20;;;12.70;99.90;;;;;;5101486;28;20128;-57
2022/05/13 04:43:09;;;;;;;15.30;3.42;;;12.70;99.90;;;;;;5100235;28;20166;-54
2022/05/13 04:45:35;;;;;;;14.25;3.55;;;12.70;99.90;;;;;;5089705;28;20047;-55
2022/05/13 04:48:16;;;;;;;10.25;2.88;;;12.70;99.90;;;;;;5104066;28;20040;-55
2022/05/13 04:50:52;;;;;;;13.07;3.55;;;12.80;99.90;;;;;;5091282;28;20040;-51
2022/05/13 04:53:25;;;;;;;13.02;3.53;;;12.80;99.90;;;;;;5100994;28;20058;-49
2022/05/13 04:55:52;;;;;;;13.82;3.53;;;12.80;99.90;;;;;;5099529;28;20075;-54
2022/05/13 04:58:19;;;;;;;11.15;2.88;;;12.80;99.90;;;;;;5101089;28;20051;-51
2022/05/13 05:00:46;;;;;;;9.30;4.65;;;12.90;99.90;;;;;;5100160;28;20112;-53
2022/05/13 05:03:13;;;;;;;9.38;2.60;;;13.00;99.90;;;;;;5100174;28;20035;-49
2022/05/13 05:05:39;;;;;;;9.57;3.50;;;13.00;99.90;;;;;;5100849;28;20673;-54
2022/05/13 05:08:05;;;;;;;14.90;3.88;;;13.10;99.90;;;;;;5099299;28;20056;-53
2022/05/13 05:10:30;;;;;;;13.38;3.42;;;13.10;99.90;;;;;;5099371;28;20048;-54
2022/05/13 05:12:57;;;;;;;11.95;3.58;;;13.20;99.90;;;;;;5100322;28;20051;-50
2022/05/13 05:15:24;;;;;;;9.25;3.30;;;13.30;99.90;;;;;;5101578;28;20461;-52
2022/05/13 05:17:50;;;;;;;10.32;3.08;;;13.30;99.90;;;;;;5101350;28;20051;-52
2022/05/13 05:20:17;;;;;;;12.40;3.33;;;13.50;99.90;;;;;;5105466;28;20142;-53
2022/05/13 05:22:46;;;;;;;10.75;3.33;;;13.60;99.90;;;;;;5103702;28;20051;-54
2022/05/13 05:25:14;;;;;;;10.75;2.97;;;13.70;99.90;;;;;;5103515;28;20051;-54
2022/05/13 05:27:41;;;;;;;9.10;2.90;;;13.70;99.90;;;;;;5104883;28;20043;-50
2022/05/13 05:30:09;;;;;;;13.90;3.63;;;13.70;99.90;;;;;;5105102;27;20112;-51
2022/05/13 05:32:40;;;;;;;11.35;3.42;;;13.70;99.90;;;;;;5103457;28;20073;-51
2022/05/13 05:35:09;;;;;;;7.60;3.00;;;13.70;99.90;;;;;;5104379;28;20549;-50
2022/05/13 05:37:35;;;;;;;7.25;2.78;;;13.60;99.90;;;;;;5092553;28;20047;-55
2022/05/13 05:40:01;;;;;;;9.32;2.70;;;13.60;99.90;;;;;;5104069;28;20133;-55
2022/05/13 05:42:27;;;;;;;10.23;3.08;;;13.60;99.90;;;;;;5102305;28;20036;-49
2022/05/13 05:44:52;;;;;;;11.65;3.15;;;13.70;99.90;;;;;;5115647;27;20074;-52
2022/05/13 05:47:23;;;;;;;10.27;3.00;;;13.70;99.90;;;;;;5102692;28;20339;-52
2022/05/13 05:49:49;;;;;;;10.85;2.60;;;13.70;99.90;;;;;;5103647;28;20252;-55
2022/05/13 05:52:15;;;;;;;10.90;2.83;;;13.80;99.90;;;;;;5103724;28;20044;-51
2022/05/13 05:57:26;;;;;;;10.85;2.80;;;13.90;99.90;;;;;;5103687;28;20104;-55
2022/05/13 05:59:52;;;;;;;7.75;2.85;;;13.90;99.90;;;;;;5109860;27;20046;-54
2022/05/13 06:02:18;;;;;;;5.97;2.30;;;13.90;99.90;;;;;;5114542;27;20398;-51
2022/05/13 06:04:44;;;;;;;6.50;2.30;;;13.90;99.90;;;;;;5104393;28;20527;-56
2022/05/13 06:07:13;;;;;;;8.73;2.38;;;13.90;99.90;;;;;;5103127;28;20051;-53
2022/05/13 06:09:40;;;;;;;11.52;2.75;;;14.00;99.90;;;;;;5104733;27;20065;-52
2022/05/13 06:12:07;;;;;;;9.73;2.53;;;14.10;99.90;;;;;;5109422;27;20051;-55
2022/05/13 06:14:34;;;;;;;11.25;2.75;;;14.00;99.90;;;;;;5102009;28;20126;-48
2022/05/13 06:16:59;;;;;;;10.70;2.55;;;14.00;99.90;;;;;;5101578;27;20055;-53
2022/05/13 06:19:25;;;;;;;6.18;2.40;;;14.00;99.90;;;;;;5101980;28;20055;-54
2022/05/13 06:21:51;;;;;;;13.80;2.60;;;14.00;99.90;;;;;;5095173;28;20059;-47
2022/05/13 06:24:18;;;;;;;11.98;3.47;;;14.00;99.90;;;;;;5084780;28;20116;-52
2022/05/13 06:26:48;;;;;;;9.50;2.72;;;14.20;99.90;;;;;;5103330;28;20061;-52
2022/05/13 06:29:15;;;;;;;15.93;3.20;;;14.30;99.90;;;;;;5102970;27;20082;-55
2022/05/13 06:31:41;;;;;;;8.23;2.67;;;14.40;99.90;;;;;;5103833;28;20051;-51
2022/05/13 06:34:08;;;;;;;16.30;2.95;;;14.40;99.90;;;;;;5103032;28;20043;-55
2022/05/13 06:36:34;;;;;;;13.73;2.63;;;14.40;99.90;;;;;;5104647;27;20623;-50
2022/05/13 06:39:00;;;;;;;12.55;2.65;;;14.50;99.90;;;;;;5103323;28;20510;-54
2022/05/13 06:41:26;;;;;;;6.78;2.63;;;14.60;99.90;;;;;;5101613;28;20047;-45
2022/05/13 06:43:52;;;;;;;7.70;2.05;;;14.70;99.90;;;;;;5101924;28;20536;-48
2022/05/13 06:46:18;;;;;;;6.47;2.05;;;14.90;99.90;;;;;;5101678;28;20043;-49
2022/05/13 06:48:44;;;;;;;9.25;2.65;;;15.40;99.90;;;;;;5103334;28;20561;-53
2022/05/13 06:51:10;;;;;;;7.80;2.00;;;15.60;99.90;;;;;;5101769;28;20097;-50
2022/05/13 06:53:35;;;;;;;5.88;2.10;;;15.70;99.90;;;;;;5100384;28;20055;-53
2022/05/13 06:56:01;;;;;;;7.07;2.08;;;15.80;99.90;;;;;;5100990;28;20461;-54
2022/05/13 06:58:27;;;;;;;7.95;2.40;;;16.00;99.90;;;;;;5101408;28;20052;-52
2022/05/13 07:00:53;;;;;;;9.68;2.97;;;16.10;99.90;;;;;;5100885;28;20115;-52
2022/05/13 07:03:20;;;;;;;8.23;2.30;;;16.30;99.90;;;;;;5102275;28;20113;-50
2022/05/13 07:05:46;;;;;;;5.97;2.03;;;16.70;99.90;;;;;;5100944;28;20062;-53
2022/05/13 07:08:13;;;;;;;7.20;2.53;;;17.20;99.90;;;;;;5102587;28;20156;-52
2022/05/13 07:10:39;;;;;;;7.65;2.03;;;17.60;99.90;;;;;;5101445;28;20472;-53
2022/05/13 07:13:10;;;;;;;7.63;2.42;;;17.80;99.90;;;;;;5103903;28;20040;-49
2022/05/13 07:15:36;;;;;;;6.10;1.88;;;17.70;99.90;;;;;;5098872;27;20051;-51
2022/05/13 07:18:02;;;;;;;11.88;3.50;;;17.70;99.90;;;;;;5102073;28;20051;-55
2022/05/13 07:20:28;;;;;;;6.93;1.80;;;18.30;99.90;;;;;;5097311;28;20051;-56
2022/05/13 07:22:57;;;;;;;8.98;2.53;;;18.50;99.90;;;;;;5100107;28;20043;-52
2022/05/13 07:25:23;;;;;;;5.45;2.28;;;18.90;99.90;;;;;;5100763;28;20548;-56
2022/05/13 07:27:50;;;;;;;6.57;2.00;;;18.80;99.90;;;;;;5099961;28;20409;-49
2022/05/13 07:30:16;;;;;;;7.85;2.80;;;18.50;99.90;;;;;;5101671;28;20070;-56
2022/05/13 07:32:42;;;;;;;11.27;2.60;;;18.00;99.90;;;;;;5100406;28;20114;-57
2022/05/13 07:35:08;;;;;;;7.85;1.90;;;17.60;99.90;;;;;;5101834;28;20104;-53
2022/05/13 07:37:35;;;;;;;9.93;3.47;;;17.60;99.90;;;;;;5102778;27;20044;-51
2022/05/13 07:42:47;;;;;;;7.57;2.05;;;17.10;99.90;;;;;;5102377;28;20056;-55
2022/05/13 07:45:13;;;;;;;10.23;3.00;;;16.90;99.90;;;;;;5101562;28;20043;-52
2022/05/13 07:47:42;;;;;;;8.70;2.10;;;16.70;99.90;;;;;;5101544;28;20078;-55
2022/05/13 07:50:10;;;;;;;9.68;2.80;;;16.90;99.90;;;;;;5101010;28;20043;-53
2022/05/13 07:52:40;;;;;;;8.88;2.20;;;16.60;99.90;;;;;;5101309;28;20118;-56
2022/05/13 07:55:10;;;;;;;9.45;2.53;;;16.50;99.90;;;;;;5101837;28;20455;-56
2022/05/13 07:57:41;;;;;;;7.03;2.00;;;16.10;99.90;;;;;;5102279;28;20074;-53
2022/05/13 08:00:29;;;;;;;9.00;2.70;;;16.10;99.90;;;;;;5097149;28;20044;-54
2022/05/13 08:03:01;;;;;;;7.63;2.45;;;16.20;99.90;;;;;;5098329;28;20058;-54
2022/05/13 08:05:31;;;;;;;8.77;2.42;;;16.40;99.90;;;;;;5101330;28;20118;-51
2022/05/13 08:08:06;;;;;;;7.38;2.70;;;16.50;99.90;;;;;;5100979;28;20124;-56
2022/05/13 08:10:32;;;;;;;7.60;2.28;;;16.50;99.90;;;;;;5101503;28;20135;-54
2022/05/13 08:12:58;;;;;;;12.30;2.55;;;16.40;99.90;;;;;;5104618;27;20038;-56
2022/05/13 08:15:24;;;;;;;8.88;2.10;;;16.40;99.90;;;;;;5109161;27;20056;-51
2022/05/13 08:17:53;;;;;;;12.75;2.38;;;16.30;99.90;;;;;;5083082;28;20054;-54
2022/05/13 08:20:20;;;;;;;6.45;2.08;;;16.10;99.90;;;;;;5102509;28;20572;-48
2022/05/13 08:22:46;;;;;;;10.50;2.50;;;16.30;99.90;;;;;;5099761;28;20043;-52
2022/05/13 08:25:12;;;;;;;7.88;2.08;;;16.50;99.90;;;;;;5102387;28;20047;-53
2022/05/13 08:27:38;;;;;;;7.85;3.03;;;16.60;99.90;;;;;;5102311;28;20439;-54
2022/05/13 08:30:05;;;;;;;6.40;2.15;;;16.70;99.90;;;;;;5101168;28;20108;-55
2022/05/13 08:32:31;;;;;;;7.15;2.28;;;16.70;99.90;;;;;;5101729;28;20060;-54
2022/05/13 08:34:57;;;;;;;8.48;2.00;;;16.80;99.90;;;;;;5100770;28;20059;-56
2022/05/13 08:37:26;;;;;;;7.03;2.00;;;16.70;99.90;;;;;;5100108;28;20039;-49
2022/05/13 08:39:52;;;;;;;13.05;2.83;;;16.80;99.90;;;;;;5101209;28;20073;-56
2022/05/13 08:42:22;;;;;;;7.82;2.13;;;17.10;99.90;;;;;;5096142;28;20056;-53
2022/05/13 08:44:49;;;;;;;8.18;2.28;;;17.50;99.90;;;;;;5101565;28;20097;-53
2022/05/13 08:47:55;;;;;;;8.40;2.38;;;17.40;99.90;;;;;;5100005;28;20447;-56
2022/05/13 08:50:48;;;;;;;8.32;2.65;;;17.70;99.90;;;;;;5002190;28;20180;-55
2022/05/13 08:53:35;;;;;;;7.65;1.70;;;17.90;99.90;;;;;;5021660;28;20057;-54
2022/05/13 08:56:08;;;;;;;9.23;2.53;;;18.00;99.90;;;;;;5022349;28;20137;-50
2022/05/13 08:59:00;;;;;;;7.95;2.08;;;18.00;99.90;;;;;;5020969;28;20579;-52
2022/05/13 09:01:38;;;;;;;9.13;2.47;;;18.10;99.90;;;;;;4989870;28;20065;-56
2022/05/13 09:04:12;;;;;;;5.47;2.13;;;18.20;99.90;;;;;;5021166;28;20045;-49
2022/05/13 09:06:42;;;;;;;7.38;2.42;;;18.20;99.90;;;;;;5015383;28;20061;-55
2022/05/13 09:09:11;;;;;;;4.47;2.05;;;18.40;99.90;;;;;;5016805;28;20046;-55
2022/05/13 09:11:50;;;;;;;7.30;2.10;;;18.50;99.90;;;;;;5028963;28;20191;-53
2022/05/13 09:14:42;;;;;;;8.32;2.75;;;18.50;99.90;;;;;;5036666;28;20083;-56
2022/05/13 09:17:13;;;;;;;9.23;2.30;;;18.40;99.90;;;;;;5028107;28;20176;-52
2022/05/13 09:19:48;;;;;;;6.47;2.28;;;18.20;99.90;;;;;;5003847;28;20319;-49
2022/05/13 09:22:14;;;;;;;4.40;1.98;;;18.20;99.90;;;;;;5091946;28;20055;-50
2022/05/13 09:24:41;;;;;;;6.80;2.25;;;18.20;99.90;;;;;;5103596;28;20044;-52
2022/05/13 09:27:07;;;;;;;8.20;2.55;;;18.00;99.90;;;;;;5103865;28;20045;-50
2022/05/13 09:29:45;;;;;;;8.13;2.88;;;17.70;99.90;;;;;;5105009;28;20553;-52
2022/05/13 09:32:26;;;;;;;13.05;3.30;;;17.60;99.90;;;;;;5103096;28;20467;-49
2022/05/13 09:35:05;;;;;;;10.48;2.63;;;18.00;99.90;;;;;;5105385;28;20407;-52
2022/05/13 09:37:43;;;;;;;9.05;2.65;;;18.50;99.90;;;;;;5104925;28;20056;-52
2022/05/13 09:40:22;;;;;;;6.80;2.20;;;18.80;99.90;;;;;;5106716;27;20099;-50
2022/05/13 09:42:50;;;;;;;10.43;3.10;;;18.80;99.90;;;;;;5125081;27;20047;-51
2022/05/13 09:45:29;;;;;;;9.05;2.58;;;18.80;99.90;;;;;;5122937;27;20146;-55
2022/05/13 09:48:04;;;;;;;8.05;2.72;;;18.80;99.90;;;;;;5100202;27;20043;-55
2022/05/13 09:50:51;;;;;;;8.88;2.63;;;19.20;99.90;;;;;;5104971;28;20058;-52
2022/05/13 09:53:23;;;;;;;9.65;2.30;;;19.10;99.90;;;;;;5103621;28;20395;-54
2022/05/13 09:55:54;;;;;;;8.38;2.25;;;18.90;99.90;;;;;;5104534;28;20044;-51
2022/05/13 09:58:33;;;;;;;8.48;2.53;;;18.90;99.90;;;;;;5103537;28;20055;-53
2022/05/13 10:01:05;;;;;;;6.30;2.28;;;19.10;99.90;;;;;;5102723;28;20055;-55
2022/05/13 10:03:38;;;;;;;8.27;2.35;;;19.30;99.90;;;;;;5086439;28;20043;-52
2022/05/13 10:06:19;;;;;;;6.68;2.80;;;19.30;99.90;;;;;;5096948;27;20390;-54
2022/05/13 10:08:56;;;;;;;7.70;2.58;;;19.30;99.90;;;;;;5107568;27;20058;-53
2022/05/13 10:14:28;;;;;;;9.48;2.90;;;19.20;99.90;;;;;;5101791;27;20039;-51
2022/05/13 10:16:59;;;;;;;5.75;2.50;;;19.40;99.90;;;;;;5100648;28;20104;-52
2022/05/13 10:19:37;;;;;;;5.82;2.38;;;19.40;99.90;;;;;;5090123;28;20055;-53
2022/05/13 10:22:39;;;;;;;8.88;2.78;;;19.40;99.90;;;;;;5097167;28;20135;-51
2022/05/13 10:25:29;;;;;;;7.43;2.75;;;19.20;99.90;;;;;;5098640;28;20052;-52
2022/05/13 10:28:07;;;;;;;10.45;2.80;;;19.10;99.90;;;;;;5082245;28;20130;-51
2022/05/13 10:30:54;;;;;;;11.43;3.40;;;19.00;99.90;;;;;;5099427;27;20051;-48
2022/05/13 10:33:25;;;;;;;5.40;2.22;;;18.90;99.90;;;;;;5095157;28;20637;-51
2022/05/13 10:36:20;;;;;;;9.02;3.03;;;18.90;99.90;;;;;;5098767;28;20413;-51
2022/05/13 10:39:05;;;;;;;8.45;2.40;;;18.90;99.90;;;;;;5096780;28;20588;-53
2022/05/13 10:41:52;;;;;;;8.85;3.00;;;19.00;99.90;;;;;;5096288;28;20035;-51
2022/05/13 10:44:53;;;;;;;9.85;3.53;;;19.10;99.90;;;;;;5092278;28;20083;-52
2022/05/13 10:47:30;;;;;;;9.27;2.88;;;19.10;99.90;;;;;;5102110;28;20074;-55
2022/05/13 10:49:57;;;;;;;8.40;3.28;;;19.30;99.90;;;;;;5100705;28;20115;-53
2022/05/13 10:52:27;;;;;;;9.52;2.50;;;19.40;99.90;;;;;;5103168;28;20047;-55
2022/05/13 10:54:53;;;;;;;7.15;2.63;;;19.50;99.90;;;;;;5103169;28;20062;-56
2022/05/13 10:57:32;;;;;;;6.20;2.25;;;19.60;99.90;;;;;;5101948;28;20052;-54
2022/05/13 11:00:17;;;;;;;6.93;2.58;;;19.80;99.90;;;;;;5100751;28;20039;-57
2022/05/13 11:03:15;;;;;;;7.50;2.58;;;19.90;99.90;;;;;;5095674;28;20047;-56
2022/05/13 11:05:40;;;;;;;6.32;2.15;;;20.00;99.90;;;;;;5102606;28;20056;-51
2022/05/13 11:08:12;;;;;;;7.95;2.25;;;20.10;99.90;;;;;;5098502;28;20055;-57
2022/05/13 11:10:54;;;;;;;8.80;2.87;;;20.10;99.10;;;;;;5097975;28;20099;-56
2022/05/13 11:13:44;;;;;;;8.50;2.33;;;19.80;98.70;;;;;;5093999;28;20040;-53
2022/05/13 11:16:28;;;;;;;7.05;2.20;;;19.50;99.30;;;;;;5101045;28;20052;-54
2022/05/13 11:19:13;;;;;;;8.65;2.58;;;19.50;99.70;;;;;;5097351;28;20047;-51
2022/05/13 11:21:56;;;;;;;7.28;2.20;;;19.70;99.90;;;;;;5100678;28;20043;-56
2022/05/13 11:28:01;;;;;;;4.00;1.50;;;20.30;98.80;;;;;;5102572;28;20059;-55
2022/05/13 11:30:39;;;;;;;7.75;2.28;;;20.10;97.90;;;;;;5100802;28;20047;-53
2022/05/13 11:33:20;;;;;;;10.13;2.65;;;20.00;98.70;;;;;;5101429;28;20458;-49
2022/05/13 11:36:17;;;;;;;6.35;2.78;;;20.30;99.30;;;;;;5101376;28;20051;-53
2022/05/13 11:38:51;;;;;;;6.80;2.17;;;20.30;98.90;;;;;;5102837;28;20447;-54
2022/05/13 11:41:22;;;;;;;6.85;2.42;;;20.10;98.20;;;;;;5102263;28;20047;-53
2022/05/13 11:43:59;;;;;;;7.35;2.22;;;20.20;98.30;;;;;;5102011;28;20077;-57
2022/05/13 11:46:45;;;;;;;7.03;2.15;;;20.00;98.10;;;;;;5101829;28;20059;-53
2022/05/13 11:49:23;;;;;;;7.45;2.55;;;20.20;98.50;;;;;;5098179;28;20048;-55
2022/05/13 11:51:49;;;;;;;9.88;3.50;;;20.20;98.90;;;;;;5098384;28;20410;-56
2022/05/13 11:54:27;;;;;;;6.82;2.75;;;20.10;98.50;;;;;;5101607;28;20039;-55
2022/05/13 11:57:23;;;;;;;8.23;2.53;;;19.90;98.40;;;;;;5102142;28;20523;-46
2022/05/13 11:59:50;;;;;;;10.75;3.30;;;19.90;98.50;;;;;;5102235;28;20045;-55
2022/05/13 12:02:18;;;;;;;7.53;2.85;;;19.60;98.20;;;;;;5098907;28;20044;-51
2022/05/13 12:05:28;;;;;;;8.43;2.50;;;19.60;98.40;;;;;;5097820;28;20050;-53
2022/05/13 12:08:17;;;;;;;6.38;2.53;;;19.40;98.60;;;;;;5033543;28;20494;-52
2022/05/13 12:10:46;;;;;;;11.85;2.80;;;19.30;98.70;;;;;;4960450;28;20537;-52
2022/05/13 12:13:41;;;;;;;8.18;2.90;;;19.30;99.00;;;;;;4973963;28;20429;-53
2022/05/13 12:16:22;;;;;;;10.30;3.28;;;19.10;99.50;;;;;;4957827;28;20055;-52
2022/05/13 12:19:25;;;;;;;8.77;2.72;;;19.10;99.90;;;;;;4959542;28;20920;-53
2022/05/13 12:22:01;;;;;;;9.88;3.03;;;19.10;99.90;;;;;;4959010;28;20551;-52
2022/05/13 12:24:29;;;;;;;11.10;3.55;;;19.10;99.90;;;;;;4959401;28;20082;-51
2022/05/13 12:26:57;;;;;;;10.35;3.50;;;18.90;99.90;;;;;;4950037;28;20059;-51
2022/05/13 12:29:32;;;;;;;11.55;3.25;;;18.80;99.90;;;;;;4945132;28;20066;-53
2022/05/13 12:31:57;;;;;;;7.70;2.63;;;18.90;99.90;;;;;;4958811;28;20058;-56
2022/05/13 12:37:38;;;;;;;5.68;2.05;;;19.20;99.00;;;;;;4952927;28;20112;-56
2022/05/13 12:40:14;;;;;;;30.85;6.82;;;19.30;98.80;;;;;;4940032;28;20098;-51
2022/05/13 12:42:51;;;;;;;6.90;2.35;;;19.50;98.40;;;;;;4923722;29;20070;-53
2022/05/13 12:45:38;;;;;;;8.75;2.75;;;19.50;98.30;;;;;;4955225;28;20432;-57
2022/05/13 12:48:16;;;;;;;12.43;3.28;;;19.30;98.50;;;;;;5004800;28;20060;-54
2022/05/13 12:51:15;;;;;;;11.05;2.90;;;19.30;99.80;;;;;;5068736;28;20056;-55
2022/05/13 12:53:54;;;;;;;11.57;3.05;;;19.00;99.60;;;;;;5082090;28;20055;-47
2022/05/13 12:56:31;;;;;;;11.90;3.28;;;18.90;99.40;;;;;;5098446;28;20059;-52
2022/05/13 12:59:21;;;;;;;19.83;4.65;;;18.90;99.90;;;;;;5100657;28;20402;-48
2022/05/13 13:01:50;;;;;;;13.32;3.53;;;18.70;99.90;;;;;;5099778;28;20166;-57
2022/05/13 13:04:22;;;;;;;11.07;3.28;;;18.60;99.90;;;;;;5100847;28;20348;-51
2022/05/13 13:06:49;;;;;;;23.75;5.18;;;18.70;99.90;;;;;;5086712;28;20062;-52
2022/05/13 13:09:27;;;;;;;12.32;3.50;;;18.60;99.90;;;;;;5097628;28;20062;-53
2022/05/13 13:12:15;;;;;;;9.95;3.22;;;18.50;99.90;;;;;;5099993;28;20050;-55
2022/05/13 13:14:49;;;;;;;9.65;3.30;;;18.50;99.90;;;;;;5098019;28;20052;-55
2022/05/13 13:17:47;;;;;;;9.57;4.00;;;18.50;99.90;;;;;;5100136;28;20389;-52
2022/05/13 13:20:17;;;;;;;12.20;3.75;;;18.50;99.90;;;;;;5086732;28;20057;-55
2022/05/13 13:22:48;;;;;;;12.95;3.85;;;18.60;99.90;;;;;;5097629;28;20468;-50
2022/05/13 13:25:28;;;;;;;8.85;2.63;;;18.70;99.90;;;;;;5112663;28;20047;-55
2022/05/13 13:28:00;;;;;;;9.63;2.95;;;18.80;99.90;;;;;;5085926;28;20453;-52